sensor_id;sensor_type;location;lat;lon;timestamp;P1;durP1;ratioP1;P2;durP2;ratioP2
76636;SDS011;65532;52.124;5.480;2024-03-06T00:01:05;17.35;;;9.32;;
76636;SDS011;65532;52.124;5.480;2024-03-06T00:03:33;17.63;;;10.07;;
76636;SDS011;65532;52.124;5.480;2024-03-06T00:05:59;18.77;;;10.48;;
76636;SDS011;65532;52.124;5.480;2024-03-06T00:08:26;18.60;;;9.82;;
76636;SDS011;65532;52.124;5.480;2024-03-06T00:10:52;18.13;;;9.07;;
76636;SDS011;65532;52.124;5.480;2024-03-06T00:13:19;16.92;;;8.75;;
76636;SDS011;65532;52.124;5.480;2024-03-06T00:15:46;15.45;;;11.60;;
76636;SDS011;65532;52.124;5.480;2024-03-06T00:18:13;15.23;;;9.15;;
76636;SDS011;65532;52.124;5.480;2024-03-06T00:20:40;14.57;;;9.30;;
76636;SDS011;65532;52.124;5.480;2024-03-06T00:23:08;15.23;;;9.88;;
76636;SDS011;65532;52.124;5.480;2024-03-06T00:25:35;12.73;;;9.27;;
76636;SDS011;65532;52.124;5.480;2024-03-06T00:28:02;13.93;;;9.50;;
76636;SDS011;65532;52.124;5.480;2024-03-06T00:30:29;22.88;;;9.05;;
76636;SDS011;65532;52.124;5.480;2024-03-06T00:32:55;16.35;;;9.85;;
76636;SDS011;65532;52.124;5.480;2024-03-06T00:35:22;15.40;;;9.43;;
76636;SDS011;65532;52.124;5.480;2024-03-06T00:37:48;15.60;;;9.43;;
76636;SDS011;65532;52.124;5.480;2024-03-06T00:40:15;19.95;;;13.65;;
76636;SDS011;65532;52.124;5.480;2024-03-06T00:42:41;20.25;;;11.60;;
76636;SDS011;65532;52.124;5.480;2024-03-06T00:45:08;18.95;;;11.82;;
76636;SDS011;65532;52.124;5.480;2024-03-06T00:47:35;19.83;;;10.55;;
76636;SDS011;65532;52.124;5.480;2024-03-06T00:50:01;20.42;;;12.98;;
76636;SDS011;65532;52.124;5.480;2024-03-06T00:52:28;21.27;;;11.85;;
76636;SDS011;65532;52.124;5.480;2024-03-06T00:54:55;18.15;;;11.05;;
76636;SDS011;65532;52.124;5.480;2024-03-06T00:57:22;17.45;;;10.60;;
76636;SDS011;65532;52.124;5.480;2024-03-06T00:59:50;17.77;;;10.18;;
76636;SDS011;65532;52.124;5.480;2024-03-06T01:02:16;19.25;;;10.20;;
76636;SDS011;65532;52.124;5.480;2024-03-06T01:04:43;19.27;;;11.15;;
76636;SDS011;65532;52.124;5.480;2024-03-06T01:07:10;17.45;;;11.32;;
76636;SDS011;65532;52.124;5.480;2024-03-06T01:09:36;23.95;;;11.65;;
76636;SDS011;65532;52.124;5.480;2024-03-06T01:12:03;23.05;;;11.15;;
76636;SDS011;65532;52.124;5.480;2024-03-06T01:14:30;17.45;;;10.50;;
76636;SDS011;65532;52.124;5.480;2024-03-06T01:16:57;20.45;;;11.55;;
76636;SDS011;65532;52.124;5.480;2024-03-06T01:19:23;15.95;;;8.90;;
76636;SDS011;65532;52.124;5.480;2024-03-06T01:21:50;19.27;;;11.43;;
76636;SDS011;65532;52.124;5.480;2024-03-06T01:24:16;16.92;;;10.77;;
76636;SDS011;65532;52.124;5.480;2024-03-06T01:26:43;20.58;;;10.77;;
76636;SDS011;65532;52.124;5.480;2024-03-06T01:29:09;21.85;;;11.55;;
76636;SDS011;65532;52.124;5.480;2024-03-06T01:31:36;22.08;;;12.48;;
76636;SDS011;65532;52.124;5.480;2024-03-06T01:34:02;22.48;;;12.23;;
76636;SDS011;65532;52.124;5.480;2024-03-06T01:36:29;18.17;;;9.98;;
76636;SDS011;65532;52.124;5.480;2024-03-06T01:38:55;20.60;;;12.32;;
76636;SDS011;65532;52.124;5.480;2024-03-06T01:41:22;19.25;;;10.20;;
76636;SDS011;65532;52.124;5.480;2024-03-06T01:43:48;20.10;;;11.50;;
76636;SDS011;65532;52.124;5.480;2024-03-06T01:46:15;16.33;;;9.68;;
76636;SDS011;65532;52.124;5.480;2024-03-06T01:48:41;18.85;;;8.95;;
76636;SDS011;65532;52.124;5.480;2024-03-06T01:51:09;15.35;;;7.72;;
76636;SDS011;65532;52.124;5.480;2024-03-06T01:53:36;16.50;;;9.98;;
76636;SDS011;65532;52.124;5.480;2024-03-06T01:56:03;17.15;;;11.45;;
76636;SDS011;65532;52.124;5.480;2024-03-06T01:58:30;16.70;;;9.20;;
76636;SDS011;65532;52.124;5.480;2024-03-06T02:00:59;19.00;;;10.70;;
76636;SDS011;65532;52.124;5.480;2024-03-06T02:03:27;20.13;;;9.60;;
76636;SDS011;65532;52.124;5.480;2024-03-06T02:05:53;16.98;;;10.55;;
76636;SDS011;65532;52.124;5.480;2024-03-06T02:08:21;21.75;;;11.27;;
76636;SDS011;65532;52.124;5.480;2024-03-06T02:10:47;19.38;;;10.55;;
76636;SDS011;65532;52.124;5.480;2024-03-06T02:13:14;16.42;;;9.20;;
76636;SDS011;65532;52.124;5.480;2024-03-06T02:15:41;17.63;;;9.40;;
76636;SDS011;65532;52.124;5.480;2024-03-06T02:18:08;15.43;;;11.18;;
76636;SDS011;65532;52.124;5.480;2024-03-06T02:20:37;20.10;;;10.50;;
76636;SDS011;65532;52.124;5.480;2024-03-06T02:23:05;20.88;;;11.23;;
76636;SDS011;65532;52.124;5.480;2024-03-06T02:25:31;18.00;;;8.65;;
76636;SDS011;65532;52.124;5.480;2024-03-06T02:27:58;20.30;;;10.38;;
76636;SDS011;65532;52.124;5.480;2024-03-06T02:30:25;16.80;;;9.93;;
76636;SDS011;65532;52.124;5.480;2024-03-06T02:32:51;14.45;;;9.77;;
76636;SDS011;65532;52.124;5.480;2024-03-06T02:35:18;17.98;;;9.70;;
76636;SDS011;65532;52.124;5.480;2024-03-06T02:37:44;17.75;;;10.63;;
76636;SDS011;65532;52.124;5.480;2024-03-06T02:40:11;18.60;;;10.70;;
76636;SDS011;65532;52.124;5.480;2024-03-06T02:42:38;17.40;;;9.27;;
76636;SDS011;65532;52.124;5.480;2024-03-06T02:45:05;15.32;;;8.98;;
76636;SDS011;65532;52.124;5.480;2024-03-06T02:47:33;22.83;;;10.80;;
76636;SDS011;65532;52.124;5.480;2024-03-06T02:50:00;21.05;;;10.35;;
76636;SDS011;65532;52.124;5.480;2024-03-06T02:52:27;14.05;;;9.13;;
76636;SDS011;65532;52.124;5.480;2024-03-06T02:54:54;13.88;;;7.47;;
76636;SDS011;65532;52.124;5.480;2024-03-06T02:57:20;13.98;;;6.13;;
76636;SDS011;65532;52.124;5.480;2024-03-06T02:59:47;18.17;;;9.90;;
76636;SDS011;65532;52.124;5.480;2024-03-06T03:02:14;15.25;;;9.00;;
76636;SDS011;65532;52.124;5.480;2024-03-06T03:04:40;25.15;;;10.75;;
76636;SDS011;65532;52.124;5.480;2024-03-06T03:07:07;25.15;;;9.68;;
76636;SDS011;65532;52.124;5.480;2024-03-06T03:09:33;17.23;;;8.82;;
76636;SDS011;65532;52.124;5.480;2024-03-06T03:12:02;27.23;;;9.27;;
76636;SDS011;65532;52.124;5.480;2024-03-06T03:14:28;29.63;;;9.55;;
76636;SDS011;65532;52.124;5.480;2024-03-06T03:16:55;18.70;;;7.65;;
76636;SDS011;65532;52.124;5.480;2024-03-06T03:19:21;12.43;;;8.02;;
76636;SDS011;65532;52.124;5.480;2024-03-06T03:21:48;13.98;;;7.85;;
76636;SDS011;65532;52.124;5.480;2024-03-06T03:24:14;17.45;;;8.85;;
76636;SDS011;65532;52.124;5.480;2024-03-06T03:26:41;13.63;;;6.88;;
76636;SDS011;65532;52.124;5.480;2024-03-06T03:29:08;14.73;;;7.65;;
76636;SDS011;65532;52.124;5.480;2024-03-06T03:31:34;15.63;;;6.72;;
76636;SDS011;65532;52.124;5.480;2024-03-06T03:34:02;15.88;;;10.93;;
76636;SDS011;65532;52.124;5.480;2024-03-06T03:36:29;16.52;;;9.45;;
76636;SDS011;65532;52.124;5.480;2024-03-06T03:38:55;13.88;;;8.05;;
76636;SDS011;65532;52.124;5.480;2024-03-06T03:41:22;14.65;;;9.02;;
76636;SDS011;65532;52.124;5.480;2024-03-06T03:43:48;24.27;;;14.77;;
76636;SDS011;65532;52.124;5.480;2024-03-06T03:46:15;15.75;;;8.73;;
76636;SDS011;65532;52.124;5.480;2024-03-06T03:48:42;11.32;;;7.97;;
76636;SDS011;65532;52.124;5.480;2024-03-06T03:51:09;15.75;;;9.93;;
76636;SDS011;65532;52.124;5.480;2024-03-06T03:53:35;20.20;;;8.75;;
76636;SDS011;65532;52.124;5.480;2024-03-06T03:56:02;19.45;;;8.27;;
76636;SDS011;65532;52.124;5.480;2024-03-06T03:58:29;11.45;;;8.20;;
76636;SDS011;65532;52.124;5.480;2024-03-06T04:00:56;18.95;;;9.73;;
76636;SDS011;65532;52.124;5.480;2024-03-06T04:03:23;13.23;;;7.60;;
76636;SDS011;65532;52.124;5.480;2024-03-06T04:05:50;12.52;;;6.80;;
76636;SDS011;65532;52.124;5.480;2024-03-06T04:08:17;17.33;;;5.32;;
76636;SDS011;65532;52.124;5.480;2024-03-06T04:10:44;27.65;;;6.53;;
76636;SDS011;65532;52.124;5.480;2024-03-06T04:13:14;18.20;;;7.38;;
76636;SDS011;65532;52.124;5.480;2024-03-06T04:15:43;11.00;;;5.07;;
76636;SDS011;65532;52.124;5.480;2024-03-06T04:18:09;22.30;;;7.30;;
76636;SDS011;65532;52.124;5.480;2024-03-06T04:20:36;19.35;;;6.95;;
76636;SDS011;65532;52.124;5.480;2024-03-06T04:23:02;18.00;;;6.88;;
76636;SDS011;65532;52.124;5.480;2024-03-06T04:25:29;17.77;;;5.07;;
76636;SDS011;65532;52.124;5.480;2024-03-06T04:27:56;11.02;;;3.92;;
76636;SDS011;65532;52.124;5.480;2024-03-06T04:30:22;14.50;;;6.88;;
76636;SDS011;65532;52.124;5.480;2024-03-06T04:32:49;26.17;;;6.93;;
76636;SDS011;65532;52.124;5.480;2024-03-06T04:35:16;8.15;;;5.60;;
76636;SDS011;65532;52.124;5.480;2024-03-06T04:37:42;17.92;;;6.85;;
76636;SDS011;65532;52.124;5.480;2024-03-06T04:40:10;24.88;;;8.60;;
76636;SDS011;65532;52.124;5.480;2024-03-06T04:42:37;22.73;;;7.15;;
76636;SDS011;65532;52.124;5.480;2024-03-06T04:45:04;26.00;;;7.55;;
76636;SDS011;65532;52.124;5.480;2024-03-06T04:47:37;13.02;;;4.43;;
76636;SDS011;65532;52.124;5.480;2024-03-06T04:50:07;17.85;;;6.75;;
76636;SDS011;65532;52.124;5.480;2024-03-06T04:52:39;12.05;;;5.95;;
76636;SDS011;65532;52.124;5.480;2024-03-06T04:55:07;27.88;;;6.07;;
76636;SDS011;65532;52.124;5.480;2024-03-06T04:57:34;19.38;;;6.47;;
76636;SDS011;65532;52.124;5.480;2024-03-06T05:00:01;17.90;;;6.68;;
76636;SDS011;65532;52.124;5.480;2024-03-06T05:02:32;18.63;;;7.18;;
76636;SDS011;65532;52.124;5.480;2024-03-06T05:05:20;10.38;;;6.45;;
76636;SDS011;65532;52.124;5.480;2024-03-06T05:08:04;6.90;;;4.50;;
76636;SDS011;65532;52.124;5.480;2024-03-06T05:10:50;7.45;;;5.50;;
76636;SDS011;65532;52.124;5.480;2024-03-06T05:13:35;36.22;;;11.18;;
76636;SDS011;65532;52.124;5.480;2024-03-06T05:16:18;11.43;;;5.30;;
76636;SDS011;65532;52.124;5.480;2024-03-06T05:19:03;9.52;;;4.38;;
76636;SDS011;65532;52.124;5.480;2024-03-06T05:21:48;9.15;;;5.97;;
76636;SDS011;65532;52.124;5.480;2024-03-06T05:24:31;6.25;;;4.15;;
76636;SDS011;65532;52.124;5.480;2024-03-06T05:27:16;5.85;;;3.90;;
76636;SDS011;65532;52.124;5.480;2024-03-06T05:30:03;9.35;;;4.50;;
76636;SDS011;65532;52.124;5.480;2024-03-06T05:32:49;14.45;;;4.95;;
76636;SDS011;65532;52.124;5.480;2024-03-06T05:35:33;20.10;;;6.03;;
76636;SDS011;65532;52.124;5.480;2024-03-06T05:38:17;12.20;;;5.90;;
76636;SDS011;65532;52.124;5.480;2024-03-06T05:41:00;12.50;;;6.18;;
76636;SDS011;65532;52.124;5.480;2024-03-06T05:43:44;7.70;;;4.93;;
76636;SDS011;65532;52.124;5.480;2024-03-06T05:46:27;14.13;;;6.13;;
76636;SDS011;65532;52.124;5.480;2024-03-06T05:49:12;9.07;;;4.07;;
76636;SDS011;65532;52.124;5.480;2024-03-06T05:51:57;9.50;;;4.78;;
76636;SDS011;65532;52.124;5.480;2024-03-06T06:00:08;13.50;;;5.03;;
76636;SDS011;65532;52.124;5.480;2024-03-06T06:02:37;13.93;;;6.20;;
76636;SDS011;65532;52.124;5.480;2024-03-06T06:05:04;23.15;;;5.43;;
76636;SDS011;65532;52.124;5.480;2024-03-06T06:07:48;18.30;;;5.00;;
76636;SDS011;65532;52.124;5.480;2024-03-06T06:10:16;19.45;;;4.82;;
76636;SDS011;65532;52.124;5.480;2024-03-06T06:12:47;8.45;;;4.68;;
76636;SDS011;65532;52.124;5.480;2024-03-06T06:15:13;6.97;;;4.82;;
76636;SDS011;65532;52.124;5.480;2024-03-06T06:17:40;15.07;;;5.47;;
76636;SDS011;65532;52.124;5.480;2024-03-06T06:20:09;28.52;;;7.53;;
76636;SDS011;65532;52.124;5.480;2024-03-06T06:22:41;21.05;;;8.75;;
76636;SDS011;65532;52.124;5.480;2024-03-06T06:25:08;18.73;;;7.32;;
76636;SDS011;65532;52.124;5.480;2024-03-06T06:27:36;31.33;;;12.80;;
76636;SDS011;65532;52.124;5.480;2024-03-06T06:30:03;15.80;;;7.35;;
76636;SDS011;65532;52.124;5.480;2024-03-06T06:32:32;16.13;;;6.38;;
76636;SDS011;65532;52.124;5.480;2024-03-06T06:34:59;17.27;;;7.22;;
76636;SDS011;65532;52.124;5.480;2024-03-06T06:37:26;22.25;;;7.60;;
76636;SDS011;65532;52.124;5.480;2024-03-06T06:39:53;19.08;;;7.70;;
76636;SDS011;65532;52.124;5.480;2024-03-06T06:42:19;21.35;;;7.28;;
76636;SDS011;65532;52.124;5.480;2024-03-06T06:44:45;11.20;;;5.65;;
76636;SDS011;65532;52.124;5.480;2024-03-06T06:47:12;8.30;;;4.22;;
76636;SDS011;65532;52.124;5.480;2024-03-06T06:49:38;9.10;;;4.90;;
76636;SDS011;65532;52.124;5.480;2024-03-06T06:52:05;10.52;;;7.10;;
76636;SDS011;65532;52.124;5.480;2024-03-06T06:54:31;14.50;;;5.95;;
76636;SDS011;65532;52.124;5.480;2024-03-06T06:56:58;14.30;;;7.50;;
76636;SDS011;65532;52.124;5.480;2024-03-06T06:59:24;11.05;;;6.60;;
76636;SDS011;65532;52.124;5.480;2024-03-06T07:01:51;13.73;;;4.50;;
76636;SDS011;65532;52.124;5.480;2024-03-06T07:04:18;9.10;;;6.40;;
76636;SDS011;65532;52.124;5.480;2024-03-06T07:06:46;12.43;;;5.82;;
76636;SDS011;65532;52.124;5.480;2024-03-06T07:09:13;12.43;;;6.60;;
76636;SDS011;65532;52.124;5.480;2024-03-06T07:11:42;22.00;;;7.88;;
76636;SDS011;65532;52.124;5.480;2024-03-06T07:14:11;22.52;;;7.38;;
76636;SDS011;65532;52.124;5.480;2024-03-06T07:16:42;20.80;;;8.35;;
76636;SDS011;65532;52.124;5.480;2024-03-06T07:19:09;23.15;;;7.38;;
76636;SDS011;65532;52.124;5.480;2024-03-06T07:21:36;19.90;;;9.63;;
76636;SDS011;65532;52.124;5.480;2024-03-06T07:24:04;23.98;;;8.88;;
76636;SDS011;65532;52.124;5.480;2024-03-06T07:26:34;25.25;;;9.27;;
76636;SDS011;65532;52.124;5.480;2024-03-06T07:29:01;19.58;;;6.53;;
76636;SDS011;65532;52.124;5.480;2024-03-06T07:31:28;22.05;;;8.85;;
76636;SDS011;65532;52.124;5.480;2024-03-06T07:33:55;17.35;;;7.28;;
76636;SDS011;65532;52.124;5.480;2024-03-06T07:36:22;22.55;;;8.00;;
76636;SDS011;65532;52.124;5.480;2024-03-06T07:38:48;17.48;;;9.13;;
76636;SDS011;65532;52.124;5.480;2024-03-06T07:41:15;25.02;;;8.00;;
76636;SDS011;65532;52.124;5.480;2024-03-06T07:43:42;20.10;;;9.07;;
76636;SDS011;65532;52.124;5.480;2024-03-06T07:46:08;24.02;;;9.88;;
76636;SDS011;65532;52.124;5.480;2024-03-06T07:48:36;23.50;;;9.90;;
76636;SDS011;65532;52.124;5.480;2024-03-06T07:51:03;27.10;;;10.65;;
76636;SDS011;65532;52.124;5.480;2024-03-06T07:53:30;23.13;;;9.35;;
76636;SDS011;65532;52.124;5.480;2024-03-06T07:55:57;33.78;;;9.50;;
76636;SDS011;65532;52.124;5.480;2024-03-06T07:58:23;16.77;;;7.90;;
76636;SDS011;65532;52.124;5.480;2024-03-06T08:00:50;12.73;;;6.43;;
76636;SDS011;65532;52.124;5.480;2024-03-06T08:03:19;16.67;;;9.00;;
76636;SDS011;65532;52.124;5.480;2024-03-06T08:05:46;19.80;;;12.90;;
76636;SDS011;65532;52.124;5.480;2024-03-06T08:08:13;22.83;;;8.15;;
76636;SDS011;65532;52.124;5.480;2024-03-06T08:10:39;30.02;;;12.10;;
76636;SDS011;65532;52.124;5.480;2024-03-06T08:13:06;20.75;;;10.77;;
76636;SDS011;65532;52.124;5.480;2024-03-06T08:15:32;17.35;;;9.23;;
76636;SDS011;65532;52.124;5.480;2024-03-06T08:17:59;16.85;;;8.73;;
76636;SDS011;65532;52.124;5.480;2024-03-06T08:20:25;18.95;;;10.70;;
76636;SDS011;65532;52.124;5.480;2024-03-06T08:22:54;21.52;;;11.70;;
76636;SDS011;65532;52.124;5.480;2024-03-06T08:25:22;12.63;;;6.88;;
76636;SDS011;65532;52.124;5.480;2024-03-06T08:27:49;16.67;;;9.23;;
76636;SDS011;65532;52.124;5.480;2024-03-06T08:30:15;19.85;;;9.63;;
76636;SDS011;65532;52.124;5.480;2024-03-06T08:32:42;19.75;;;9.80;;
76636;SDS011;65532;52.124;5.480;2024-03-06T08:35:11;16.90;;;9.85;;
76636;SDS011;65532;52.124;5.480;2024-03-06T08:37:43;20.48;;;12.15;;
76636;SDS011;65532;52.124;5.480;2024-03-06T08:40:09;6.70;;;3.60;;
76636;SDS011;65532;52.124;5.480;2024-03-06T08:42:41;14.68;;;8.02;;
76636;SDS011;65532;52.124;5.480;2024-03-06T08:45:11;26.13;;;7.30;;
76636;SDS011;65532;52.124;5.480;2024-03-06T08:47:37;29.15;;;11.30;;
76636;SDS011;65532;52.124;5.480;2024-03-06T08:50:04;15.35;;;7.57;;
76636;SDS011;65532;52.124;5.480;2024-03-06T08:52:31;18.60;;;9.27;;
76636;SDS011;65532;52.124;5.480;2024-03-06T08:54:58;17.00;;;8.90;;
76636;SDS011;65532;52.124;5.480;2024-03-06T08:57:24;21.77;;;9.07;;
76636;SDS011;65532;52.124;5.480;2024-03-06T08:59:54;18.42;;;8.70;;
76636;SDS011;65532;52.124;5.480;2024-03-06T09:02:21;16.98;;;6.95;;
76636;SDS011;65532;52.124;5.480;2024-03-06T09:04:48;19.48;;;12.57;;
76636;SDS011;65532;52.124;5.480;2024-03-06T09:07:18;18.90;;;8.25;;
76636;SDS011;65532;52.124;5.480;2024-03-06T09:09:45;23.63;;;9.70;;
76636;SDS011;65532;52.124;5.480;2024-03-06T09:12:12;15.25;;;8.68;;
76636;SDS011;65532;52.124;5.480;2024-03-06T09:14:39;31.85;;;13.15;;
76636;SDS011;65532;52.124;5.480;2024-03-06T09:17:07;13.90;;;6.22;;
76636;SDS011;65532;52.124;5.480;2024-03-06T09:19:36;28.40;;;11.80;;
76636;SDS011;65532;52.124;5.480;2024-03-06T09:22:06;18.73;;;9.35;;
76636;SDS011;65532;52.124;5.480;2024-03-06T09:24:32;31.20;;;15.88;;
76636;SDS011;65532;52.124;5.480;2024-03-06T09:27:01;25.83;;;13.57;;
76636;SDS011;65532;52.124;5.480;2024-03-06T09:29:28;28.85;;;13.30;;
76636;SDS011;65532;52.124;5.480;2024-03-06T09:31:55;22.45;;;10.73;;
76636;SDS011;65532;52.124;5.480;2024-03-06T09:34:21;25.00;;;12.93;;
76636;SDS011;65532;52.124;5.480;2024-03-06T09:36:49;25.98;;;11.65;;
76636;SDS011;65532;52.124;5.480;2024-03-06T09:39:16;26.48;;;12.95;;
76636;SDS011;65532;52.124;5.480;2024-03-06T09:41:44;22.98;;;12.77;;
76636;SDS011;65532;52.124;5.480;2024-03-06T09:44:12;25.73;;;13.27;;
76636;SDS011;65532;52.124;5.480;2024-03-06T09:46:43;26.83;;;10.43;;
76636;SDS011;65532;52.124;5.480;2024-03-06T09:49:11;17.13;;;9.40;;
76636;SDS011;65532;52.124;5.480;2024-03-06T09:51:44;16.92;;;7.38;;
76636;SDS011;65532;52.124;5.480;2024-03-06T09:54:19;21.08;;;12.20;;
76636;SDS011;65532;52.124;5.480;2024-03-06T09:56:46;18.88;;;8.77;;
76636;SDS011;65532;52.124;5.480;2024-03-06T09:59:13;21.55;;;9.73;;
76636;SDS011;65532;52.124;5.480;2024-03-06T10:01:50;24.15;;;14.13;;
76636;SDS011;65532;52.124;5.480;2024-03-06T10:04:24;38.13;;;18.10;;
76636;SDS011;65532;52.124;5.480;2024-03-06T10:06:52;24.33;;;10.95;;
76636;SDS011;65532;52.124;5.480;2024-03-06T10:09:24;26.05;;;12.32;;
76636;SDS011;65532;52.124;5.480;2024-03-06T10:11:51;26.50;;;13.98;;
76636;SDS011;65532;52.124;5.480;2024-03-06T10:14:24;32.97;;;15.98;;
76636;SDS011;65532;52.124;5.480;2024-03-06T10:16:55;23.98;;;12.45;;
76636;SDS011;65532;52.124;5.480;2024-03-06T10:19:23;26.60;;;14.68;;
76636;SDS011;65532;52.124;5.480;2024-03-06T10:21:51;29.27;;;14.27;;
76636;SDS011;65532;52.124;5.480;2024-03-06T10:24:18;22.23;;;11.35;;
76636;SDS011;65532;52.124;5.480;2024-03-06T10:26:46;19.23;;;10.05;;
76636;SDS011;65532;52.124;5.480;2024-03-06T10:29:15;24.50;;;12.82;;
76636;SDS011;65532;52.124;5.480;2024-03-06T10:31:55;29.95;;;14.60;;
76636;SDS011;65532;52.124;5.480;2024-03-06T10:34:27;22.10;;;10.70;;
76636;SDS011;65532;52.124;5.480;2024-03-06T10:36:55;20.88;;;10.25;;
76636;SDS011;65532;52.124;5.480;2024-03-06T10:39:22;21.08;;;9.73;;
76636;SDS011;65532;52.124;5.480;2024-03-06T10:41:54;16.02;;;8.25;;
76636;SDS011;65532;52.124;5.480;2024-03-06T10:44:22;27.80;;;14.27;;
76636;SDS011;65532;52.124;5.480;2024-03-06T10:46:55;23.33;;;14.02;;
76636;SDS011;65532;52.124;5.480;2024-03-06T10:49:24;19.08;;;9.13;;
76636;SDS011;65532;52.124;5.480;2024-03-06T10:51:52;23.40;;;10.43;;
76636;SDS011;65532;52.124;5.480;2024-03-06T10:54:20;27.30;;;14.73;;
76636;SDS011;65532;52.124;5.480;2024-03-06T10:56:49;17.73;;;9.38;;
76636;SDS011;65532;52.124;5.480;2024-03-06T10:59:16;25.90;;;12.05;;
76636;SDS011;65532;52.124;5.480;2024-03-06T11:01:44;22.92;;;13.45;;
76636;SDS011;65532;52.124;5.480;2024-03-06T11:04:13;22.33;;;10.00;;
76636;SDS011;65532;52.124;5.480;2024-03-06T11:06:41;18.10;;;10.85;;
76636;SDS011;65532;52.124;5.480;2024-03-06T11:09:08;24.73;;;14.45;;
76636;SDS011;65532;52.124;5.480;2024-03-06T11:11:47;22.35;;;10.30;;
76636;SDS011;65532;52.124;5.480;2024-03-06T11:14:18;18.42;;;11.18;;
76636;SDS011;65532;52.124;5.480;2024-03-06T11:19:26;22.75;;;10.93;;
76636;SDS011;65532;52.124;5.480;2024-03-06T11:21:53;23.13;;;12.77;;
76636;SDS011;65532;52.124;5.480;2024-03-06T11:24:20;22.95;;;11.82;;
76636;SDS011;65532;52.124;5.480;2024-03-06T11:26:49;18.90;;;9.75;;
76636;SDS011;65532;52.124;5.480;2024-03-06T11:29:24;21.38;;;9.52;;
76636;SDS011;65532;52.124;5.480;2024-03-06T11:32:00;16.88;;;10.23;;
76636;SDS011;65532;52.124;5.480;2024-03-06T11:34:28;20.60;;;11.30;;
76636;SDS011;65532;52.124;5.480;2024-03-06T11:36:57;20.95;;;11.80;;
76636;SDS011;65532;52.124;5.480;2024-03-06T11:39:23;17.63;;;11.75;;
76636;SDS011;65532;52.124;5.480;2024-03-06T11:41:50;18.73;;;9.55;;
76636;SDS011;65532;52.124;5.480;2024-03-06T11:44:18;18.63;;;8.55;;
76636;SDS011;65532;52.124;5.480;2024-03-06T11:49:30;20.08;;;9.40;;
76636;SDS011;65532;52.124;5.480;2024-03-06T11:54:29;17.27;;;9.07;;
76636;SDS011;65532;52.124;5.480;2024-03-06T11:56:57;20.75;;;9.55;;
76636;SDS011;65532;52.124;5.480;2024-03-06T11:59:28;19.83;;;9.27;;
76636;SDS011;65532;52.124;5.480;2024-03-06T12:02:03;17.23;;;9.30;;
76636;SDS011;65532;52.124;5.480;2024-03-06T12:04:31;18.02;;;11.23;;
76636;SDS011;65532;52.124;5.480;2024-03-06T12:07:00;17.52;;;7.82;;
76636;SDS011;65532;52.124;5.480;2024-03-06T12:09:34;16.15;;;8.35;;
76636;SDS011;65532;52.124;5.480;2024-03-06T12:12:08;14.00;;;7.95;;
76636;SDS011;65532;52.124;5.480;2024-03-06T12:14:35;11.65;;;5.82;;
76636;SDS011;65532;52.124;5.480;2024-03-06T12:17:02;13.13;;;7.60;;
76636;SDS011;65532;52.124;5.480;2024-03-06T12:19:34;13.18;;;5.90;;
76636;SDS011;65532;52.124;5.480;2024-03-06T12:22:02;11.52;;;5.43;;
76636;SDS011;65532;52.124;5.480;2024-03-06T12:24:33;13.23;;;6.38;;
76636;SDS011;65532;52.124;5.480;2024-03-06T12:27:03;15.00;;;7.43;;
76636;SDS011;65532;52.124;5.480;2024-03-06T12:29:31;12.43;;;5.63;;
76636;SDS011;65532;52.124;5.480;2024-03-06T12:31:59;9.65;;;4.82;;
76636;SDS011;65532;52.124;5.480;2024-03-06T12:34:26;13.27;;;6.20;;
76636;SDS011;65532;52.124;5.480;2024-03-06T12:36:53;15.27;;;7.53;;
76636;SDS011;65532;52.124;5.480;2024-03-06T12:39:20;11.68;;;6.55;;
76636;SDS011;65532;52.124;5.480;2024-03-06T12:41:50;12.35;;;5.95;;
76636;SDS011;65532;52.124;5.480;2024-03-06T12:44:19;11.88;;;5.07;;
76636;SDS011;65532;52.124;5.480;2024-03-06T12:46:46;10.48;;;4.93;;
76636;SDS011;65532;52.124;5.480;2024-03-06T12:49:13;15.30;;;7.20;;
76636;SDS011;65532;52.124;5.480;2024-03-06T12:51:39;11.43;;;6.30;;
76636;SDS011;65532;52.124;5.480;2024-03-06T12:54:06;10.20;;;5.65;;
76636;SDS011;65532;52.124;5.480;2024-03-06T12:56:34;8.18;;;3.63;;
76636;SDS011;65532;52.124;5.480;2024-03-06T12:59:01;12.15;;;3.72;;
76636;SDS011;65532;52.124;5.480;2024-03-06T13:01:28;10.85;;;6.00;;
76636;SDS011;65532;52.124;5.480;2024-03-06T13:03:54;7.80;;;4.60;;
76636;SDS011;65532;52.124;5.480;2024-03-06T13:06:31;7.68;;;3.55;;
76636;SDS011;65532;52.124;5.480;2024-03-06T13:08:58;9.40;;;4.93;;
76636;SDS011;65532;52.124;5.480;2024-03-06T13:11:25;9.18;;;4.28;;
76636;SDS011;65532;52.124;5.480;2024-03-06T13:13:52;9.30;;;5.15;;
76636;SDS011;65532;52.124;5.480;2024-03-06T13:16:19;12.05;;;4.75;;
76636;SDS011;65532;52.124;5.480;2024-03-06T13:18:46;8.13;;;3.95;;
76636;SDS011;65532;52.124;5.480;2024-03-06T13:21:12;9.68;;;3.25;;
76636;SDS011;65532;52.124;5.480;2024-03-06T13:23:39;8.65;;;4.80;;
76636;SDS011;65532;52.124;5.480;2024-03-06T13:26:06;9.20;;;5.57;;
76636;SDS011;65532;52.124;5.480;2024-03-06T13:28:32;9.23;;;4.95;;
76636;SDS011;65532;52.124;5.480;2024-03-06T13:30:59;7.28;;;3.33;;
76636;SDS011;65532;52.124;5.480;2024-03-06T13:33:26;7.82;;;4.05;;
76636;SDS011;65532;52.124;5.480;2024-03-06T13:35:54;7.15;;;2.60;;
76636;SDS011;65532;52.124;5.480;2024-03-06T13:38:22;5.65;;;1.60;;
76636;SDS011;65532;52.124;5.480;2024-03-06T13:40:48;6.93;;;2.55;;
76636;SDS011;65532;52.124;5.480;2024-03-06T13:43:14;7.53;;;3.22;;
76636;SDS011;65532;52.124;5.480;2024-03-06T13:45:50;5.35;;;2.97;;
76636;SDS011;65532;52.124;5.480;2024-03-06T13:48:17;7.93;;;4.13;;
76636;SDS011;65532;52.124;5.480;2024-03-06T13:50:45;5.72;;;2.45;;
76636;SDS011;65532;52.124;5.480;2024-03-06T13:53:12;6.28;;;2.95;;
76636;SDS011;65532;52.124;5.480;2024-03-06T13:55:39;6.55;;;3.45;;
76636;SDS011;65532;52.124;5.480;2024-03-06T13:58:06;7.30;;;2.80;;
76636;SDS011;65532;52.124;5.480;2024-03-06T14:00:33;13.27;;;3.28;;
76636;SDS011;65532;52.124;5.480;2024-03-06T14:03:01;6.38;;;3.13;;
76636;SDS011;65532;52.124;5.480;2024-03-06T14:05:29;10.10;;;3.35;;
76636;SDS011;65532;52.124;5.480;2024-03-06T14:07:56;8.00;;;3.35;;
76636;SDS011;65532;52.124;5.480;2024-03-06T14:10:23;6.97;;;2.88;;
76636;SDS011;65532;52.124;5.480;2024-03-06T14:12:50;8.60;;;3.42;;
76636;SDS011;65532;52.124;5.480;2024-03-06T14:15:18;8.00;;;3.78;;
76636;SDS011;65532;52.124;5.480;2024-03-06T14:17:45;6.78;;;3.67;;
76636;SDS011;65532;52.124;5.480;2024-03-06T14:20:12;6.95;;;2.97;;
76636;SDS011;65532;52.124;5.480;2024-03-06T14:22:39;10.75;;;2.60;;
76636;SDS011;65532;52.124;5.480;2024-03-06T14:25:06;9.30;;;3.08;;
76636;SDS011;65532;52.124;5.480;2024-03-06T14:27:34;9.75;;;4.40;;
76636;SDS011;65532;52.124;5.480;2024-03-06T14:30:04;9.98;;;3.83;;
76636;SDS011;65532;52.124;5.480;2024-03-06T14:32:33;11.50;;;4.60;;
76636;SDS011;65532;52.124;5.480;2024-03-06T14:35:00;9.13;;;3.92;;
76636;SDS011;65532;52.124;5.480;2024-03-06T14:37:27;11.88;;;4.38;;
76636;SDS011;65532;52.124;5.480;2024-03-06T14:39:54;9.52;;;5.13;;
76636;SDS011;65532;52.124;5.480;2024-03-06T14:42:21;8.52;;;4.68;;
76636;SDS011;65532;52.124;5.480;2024-03-06T14:44:47;11.18;;;4.55;;
76636;SDS011;65532;52.124;5.480;2024-03-06T14:47:15;7.65;;;3.60;;
76636;SDS011;65532;52.124;5.480;2024-03-06T14:49:44;8.45;;;3.47;;
76636;SDS011;65532;52.124;5.480;2024-03-06T14:52:11;9.32;;;4.13;;
76636;SDS011;65532;52.124;5.480;2024-03-06T14:54:41;7.05;;;3.38;;